createdAt,value
2022-12-29T00:00:18.073Z,3.60
2022-12-29T00:03:07.000Z,3.69
2022-12-29T00:05:34.757Z,3.64
2022-12-29T00:08:01.889Z,3.81
2022-12-29T00:10:29.366Z,3.87
2022-12-29T00:13:15.445Z,3.87
2022-12-29T00:15:43.039Z,3.80
2022-12-29T00:18:10.572Z,3.80
2022-12-29T00:20:58.724Z,3.83
2022-12-29T00:23:46.077Z,3.77
2022-12-29T00:26:34.688Z,3.78
2022-12-29T00:29:20.468Z,3.83
2022-12-29T00:32:21.865Z,3.85
2022-12-29T00:35:08.936Z,3.91
2022-12-29T00:38:07.461Z,3.89
2022-12-29T00:40:54.467Z,3.91
2022-12-29T00:43:40.907Z,3.81
2022-12-29T00:46:08.192Z,3.86
2022-12-29T00:49:01.819Z,3.86
2022-12-29T00:51:30.585Z,3.95
2022-12-29T00:53:58.180Z,3.99
2022-12-29T00:56:26.319Z,3.94
2022-12-29T00:58:53.947Z,3.94
2022-12-29T01:01:21.292Z,3.85
2022-12-29T01:03:57.435Z,3.95
2022-12-29T01:06:29.090Z,3.90
2022-12-29T01:09:14.992Z,3.91
2022-12-29T01:11:42.748Z,3.76
2022-12-29T01:14:11.670Z,3.88
2022-12-29T01:16:38.803Z,3.83
2022-12-29T01:19:06.475Z,3.71
2022-12-29T01:21:34.914Z,3.77
2022-12-29T01:24:02.719Z,3.68
2022-12-29T01:26:30.302Z,3.73
2022-12-29T01:28:58.077Z,3.77
2022-12-29T01:31:25.799Z,3.73
2022-12-29T01:33:54.755Z,3.71
2022-12-29T01:36:21.923Z,3.64
2022-12-29T01:38:49.707Z,3.53
2022-12-29T01:41:17.800Z,3.50
2022-12-29T01:43:55.377Z,3.52
2022-12-29T01:46:42.589Z,3.51
2022-12-29T01:49:25.139Z,3.53
2022-12-29T01:52:05.787Z,3.52
2022-12-29T01:54:36.283Z,3.52
2022-12-29T01:57:10.606Z,3.49
2022-12-29T01:59:49.516Z,3.60
2022-12-29T02:02:17.464Z,3.51
2022-12-29T02:04:46.109Z,3.59
2022-12-29T02:07:20.868Z,3.49
2022-12-29T02:09:51.269Z,3.49
2022-12-29T02:12:20.508Z,3.53
2022-12-29T02:14:51.729Z,3.56
2022-12-29T02:17:53.374Z,3.63
2022-12-29T02:20:55.167Z,3.64
2022-12-29T02:23:50.489Z,3.63
2022-12-29T02:26:38.534Z,3.64
2022-12-29T02:29:14.967Z,3.59
2022-12-29T02:31:52.508Z,3.69
2022-12-29T02:34:39.581Z,3.81
2022-12-29T02:37:38.569Z,3.69
2022-12-29T02:40:26.766Z,3.64
2022-12-29T02:43:12.646Z,3.52
2022-12-29T02:46:00.407Z,3.59
2022-12-29T02:48:55.590Z,3.57
2022-12-29T02:51:33.775Z,3.59
2022-12-29T02:54:19.726Z,3.59
2022-12-29T02:56:48.364Z,3.59
2022-12-29T02:59:16.548Z,3.51
2022-12-29T03:02:15.703Z,3.51
2022-12-29T03:05:14.014Z,3.36
2022-12-29T03:08:06.013Z,3.37
2022-12-29T03:10:50.879Z,3.29
2022-12-29T03:13:45.572Z,3.32
2022-12-29T03:18:16.719Z,3.40
2022-12-29T03:21:48.122Z,3.43
2022-12-29T03:24:23.562Z,3.47
2022-12-29T03:26:56.099Z,3.33
2022-12-29T03:29:25.438Z,3.26
2022-12-29T03:31:57.456Z,3.26
2022-12-29T03:34:26.143Z,3.22
2022-12-29T03:37:07.931Z,3.36
2022-12-29T03:39:36.074Z,3.41
2022-12-29T03:42:07.628Z,3.41
2022-12-29T03:44:45.166Z,3.54
2022-12-29T03:47:16.294Z,3.67
2022-12-29T03:49:46.276Z,3.82
2022-12-29T03:52:14.129Z,4.01
2022-12-29T03:54:44.355Z,4.13
2022-12-29T03:57:15.914Z,4.17
2022-12-29T03:59:52.712Z,4.21
2022-12-29T04:02:20.446Z,4.31
2022-12-29T04:04:48.413Z,4.52
2022-12-29T04:07:16.318Z,4.44
2022-12-29T04:09:45.339Z,4.47
2022-12-29T04:12:19.618Z,4.45
2022-12-29T04:14:47.684Z,4.36
2022-12-29T04:17:16.119Z,4.49
2022-12-29T04:19:46.610Z,4.55
2022-12-29T04:22:14.046Z,4.48
2022-12-29T04:24:41.709Z,4.57
2022-12-29T04:27:11.591Z,4.56
2022-12-29T04:29:50.487Z,4.61
2022-12-29T04:32:41.011Z,4.70
2022-12-29T04:35:08.681Z,4.65
2022-12-29T04:37:36.109Z,4.65
2022-12-29T04:40:08.993Z,4.74
2022-12-29T04:42:37.259Z,4.66
2022-12-29T04:45:04.650Z,4.60
2022-12-29T04:47:50.324Z,4.67
2022-12-29T04:50:37.837Z,4.70
2022-12-29T04:53:14.963Z,4.74
2022-12-29T04:55:43.678Z,4.74
2022-12-29T04:58:11.450Z,4.64
2022-12-29T05:00:39.375Z,4.55
2022-12-29T05:03:07.331Z,4.45
2022-12-29T05:05:37.776Z,4.52
2022-12-29T05:08:05.602Z,4.59
2022-12-29T05:10:32.820Z,4.65
2022-12-29T05:13:06.977Z,4.58
2022-12-29T05:15:36.187Z,4.56
2022-12-29T05:18:19.384Z,4.53
2022-12-29T05:20:48.122Z,4.53
2022-12-29T05:23:16.870Z,4.54
2022-12-29T05:25:46.872Z,4.48
2022-12-29T05:28:28.077Z,4.50
2022-12-29T05:31:00.610Z,4.51
2022-12-29T05:33:28.767Z,4.48
2022-12-29T05:35:55.918Z,4.45
2022-12-29T05:38:25.540Z,4.51
2022-12-29T05:40:52.985Z,4.38
2022-12-29T05:43:56.511Z,4.51
2022-12-29T05:46:33.153Z,4.42
2022-12-29T05:49:30.724Z,4.28
2022-12-29T05:52:43.742Z,4.38
2022-12-29T05:55:12.783Z,4.30
2022-12-29T05:57:41.061Z,4.39
2022-12-29T06:00:13.421Z,4.32
2022-12-29T06:02:50.183Z,4.37
2022-12-29T06:05:19.057Z,4.48
2022-12-29T06:07:47.827Z,4.54
2022-12-29T06:10:17.699Z,4.61
2022-12-29T06:12:56.247Z,4.53
2022-12-29T06:15:24.012Z,4.49
2022-12-29T06:17:51.502Z,4.50
2022-12-29T06:20:19.353Z,4.50
2022-12-29T06:22:47.647Z,4.54
2022-12-29T06:25:15.186Z,4.58
2022-12-29T06:27:44.487Z,4.61
2022-12-29T06:30:13.950Z,4.67
2022-12-29T06:32:42.165Z,4.71
2022-12-29T06:35:13.935Z,4.74
2022-12-29T06:37:51.669Z,4.79
2022-12-29T06:40:24.182Z,4.81
2022-12-29T06:43:12.262Z,4.80
2022-12-29T06:46:18.258Z,4.95
2022-12-29T06:48:45.539Z,4.96
2022-12-29T06:51:13.005Z,4.96
2022-12-29T06:53:40.254Z,4.95
2022-12-29T06:56:07.976Z,4.88
2022-12-29T06:58:35.074Z,4.85
2022-12-29T07:01:02.626Z,5.02
2022-12-29T07:03:30.000Z,5.11
2022-12-29T07:05:59.216Z,5.13
2022-12-29T07:08:26.474Z,5.30
2022-12-29T07:10:53.967Z,6.56
2022-12-29T07:13:21.182Z,8.13
2022-12-29T07:15:48.579Z,9.56
2022-12-29T07:18:15.676Z,10.60
2022-12-29T07:20:43.267Z,11.33
2022-12-29T07:23:12.718Z,11.93
2022-12-29T07:25:42.119Z,12.41
2022-12-29T07:28:09.264Z,13.38
2022-12-29T07:30:39.643Z,13.91
2022-12-29T07:33:06.772Z,14.32
2022-12-29T07:35:37.238Z,14.53
2022-12-29T07:38:04.295Z,14.37
2022-12-29T07:40:31.972Z,14.05
2022-12-29T07:42:59.280Z,14.63
2022-12-29T07:45:33.772Z,14.88
2022-12-29T07:48:09.546Z,15.57
2022-12-29T07:50:38.612Z,15.65
2022-12-29T07:53:05.774Z,15.87
2022-12-29T07:55:33.465Z,16.14
2022-12-29T07:58:00.759Z,16.98
2022-12-29T08:00:30.572Z,16.89
2022-12-29T08:02:59.319Z,16.90
2022-12-29T08:05:27.338Z,17.58
2022-12-29T08:07:54.520Z,17.43
2022-12-29T08:10:21.921Z,17.78
2022-12-29T08:12:49.022Z,17.31
2022-12-29T08:15:17.995Z,17.42
2022-12-29T08:17:45.178Z,17.29
2022-12-29T08:20:12.742Z,17.35
2022-12-29T08:22:40.186Z,15.49
2022-12-29T08:25:09.427Z,15.63
2022-12-29T08:27:36.855Z,16.72
2022-12-29T08:30:05.524Z,17.14
2022-12-29T08:32:33.003Z,17.88
2022-12-29T08:35:00.435Z,17.76
2022-12-29T08:37:31.027Z,17.11
2022-12-29T08:39:59.893Z,17.50
2022-12-29T08:42:32.049Z,17.67
2022-12-29T08:45:00.475Z,17.87
2022-12-29T08:47:28.349Z,16.88
2022-12-29T08:49:55.882Z,17.22
2022-12-29T08:52:24.333Z,17.60
2022-12-29T08:54:51.828Z,18.01
2022-12-29T08:57:20.472Z,18.73
2022-12-29T09:00:00.314Z,19.09
2022-12-29T09:02:28.358Z,19.45
2022-12-29T09:04:56.035Z,19.46
2022-12-29T09:07:23.190Z,19.18
2022-12-29T09:09:50.621Z,19.08
2022-12-29T09:12:18.819Z,18.26
2022-12-29T09:14:48.578Z,18.81
2022-12-29T09:17:34.619Z,19.07
2022-12-29T09:20:02.361Z,19.22
2022-12-29T09:22:33.962Z,18.72
2022-12-29T09:25:01.485Z,19.30
2022-12-29T09:27:28.790Z,19.47
2022-12-29T09:29:56.247Z,18.79
2022-12-29T09:32:24.953Z,18.93
2022-12-29T09:34:53.896Z,19.35
2022-12-29T09:37:20.999Z,19.23
2022-12-29T09:39:54.064Z,20.02
2022-12-29T09:42:56.635Z,20.81
2022-12-29T09:45:35.095Z,20.58
2022-12-29T09:48:09.644Z,20.52
2022-12-29T09:50:40.263Z,20.50
2022-12-29T09:53:33.038Z,20.58
2022-12-29T09:56:03.019Z,20.13
2022-12-29T09:58:35.529Z,20.50
2022-12-29T10:01:06.617Z,20.63
2022-12-29T10:03:55.981Z,20.98
2022-12-29T10:07:28.616Z,19.92
2022-12-29T10:10:08.173Z,20.67
2022-12-29T10:13:03.422Z,21.14
2022-12-29T10:15:58.596Z,21.06
2022-12-29T10:19:07.716Z,20.86
2022-12-29T10:21:53.346Z,19.90
2022-12-29T10:24:23.208Z,19.36
2022-12-29T10:26:52.857Z,20.24
2022-12-29T10:29:23.571Z,20.19
2022-12-29T10:31:58.063Z,19.72
2022-12-29T10:34:38.068Z,19.73
2022-12-29T10:37:16.061Z,19.21
2022-12-29T10:39:50.924Z,19.59
2022-12-29T10:42:30.194Z,19.47
2022-12-29T10:45:00.036Z,20.13
2022-12-29T10:47:43.727Z,19.91
2022-12-29T10:50:13.500Z,19.92
2022-12-29T10:52:41.649Z,19.90
2022-12-29T10:55:16.547Z,20.47
2022-12-29T10:57:45.543Z,20.68
2022-12-29T11:00:18.874Z,20.97
2022-12-29T11:03:07.977Z,22.02
2022-12-29T11:05:55.807Z,21.94
2022-12-29T11:08:27.675Z,22.23
2022-12-29T11:11:04.938Z,22.14
2022-12-29T11:13:38.917Z,22.35
2022-12-29T11:16:07.072Z,22.61
2022-12-29T11:18:41.072Z,23.12
2022-12-29T11:21:28.388Z,22.36
2022-12-29T11:24:03.289Z,22.23
2022-12-29T11:26:34.792Z,22.31
2022-12-29T11:29:17.383Z,23.06
2022-12-29T11:31:53.071Z,23.17
2022-12-29T11:34:40.610Z,22.97
2022-12-29T11:37:14.261Z,22.80
2022-12-29T11:40:00.426Z,23.21
2022-12-29T11:42:51.555Z,22.93
2022-12-29T11:45:33.578Z,22.41
2022-12-29T11:48:11.458Z,22.95
2022-12-29T11:50:41.617Z,23.05
2022-12-29T11:53:16.859Z,23.99
2022-12-29T11:56:00.306Z,23.34
2022-12-29T11:58:37.667Z,22.47
2022-12-29T12:01:11.130Z,23.19
2022-12-29T12:03:49.519Z,22.13
2022-12-29T12:06:22.545Z,22.28
2022-12-29T12:08:57.843Z,22.46
2022-12-29T12:11:27.655Z,22.87
2022-12-29T12:14:02.217Z,22.79
2022-12-29T12:16:55.591Z,20.96
2022-12-29T12:19:32.362Z,19.36
2022-12-29T12:22:14.086Z,18.55
2022-12-29T12:24:55.321Z,17.89
2022-12-29T12:27:30.400Z,17.45
2022-12-29T12:30:05.283Z,17.28
2022-12-29T12:32:44.695Z,16.61
2022-12-29T12:35:46.014Z,16.40
2022-12-29T12:38:37.276Z,16.05
2022-12-29T12:41:21.951Z,15.98
2022-12-29T12:44:00.132Z,16.13
2022-12-29T12:46:46.987Z,16.00
2022-12-29T12:49:37.712Z,16.05
2022-12-29T12:52:42.559Z,16.44
2022-12-29T12:55:31.816Z,17.26
2022-12-29T12:58:21.716Z,17.79
2022-12-29T13:01:07.972Z,18.20
2022-12-29T13:04:14.228Z,18.91
2022-12-29T13:06:49.183Z,19.36
2022-12-29T13:09:42.203Z,19.67
2022-12-29T13:12:46.286Z,20.31
2022-12-29T13:15:25.335Z,19.82
2022-12-29T13:18:01.594Z,19.41
2022-12-29T13:20:55.641Z,18.43
2022-12-29T13:23:45.569Z,17.41
2022-12-29T13:26:24.815Z,16.78
2022-12-29T13:29:18.853Z,16.12
2022-12-29T13:32:24.834Z,15.66
2022-12-29T13:34:54.939Z,15.23
2022-12-29T13:37:28.761Z,14.98
2022-12-29T13:40:00.643Z,14.82
2022-12-29T13:42:29.143Z,14.71
2022-12-29T13:45:11.292Z,14.54
2022-12-29T13:48:03.639Z,14.49
2022-12-29T13:50:36.284Z,14.38
2022-12-29T13:53:16.465Z,14.38
2022-12-29T13:55:49.419Z,14.24
2022-12-29T13:58:35.385Z,14.18
2022-12-29T14:01:32.149Z,14.15
2022-12-29T14:04:03.979Z,14.07
2022-12-29T14:06:33.348Z,14.09
2022-12-29T14:09:03.535Z,14.02
2022-12-29T14:11:37.226Z,14.00
2022-12-29T14:14:15.321Z,13.84
2022-12-29T14:16:44.018Z,13.78
2022-12-29T14:19:17.710Z,13.73
2022-12-29T14:22:11.633Z,13.64
2022-12-29T14:24:42.758Z,13.59
2022-12-29T14:27:09.875Z,13.50
2022-12-29T14:29:40.126Z,13.60
2022-12-29T14:32:25.377Z,13.60
2022-12-29T14:34:57.744Z,13.60
2022-12-29T14:37:40.150Z,13.52
2022-12-29T14:40:27.456Z,13.52
2022-12-29T14:42:57.527Z,13.46
2022-12-29T14:45:29.919Z,13.49
2022-12-29T14:47:57.853Z,13.31
2022-12-29T14:50:37.899Z,13.25
2022-12-29T14:53:07.588Z,13.27
2022-12-29T14:55:47.578Z,13.27
2022-12-29T14:58:28.353Z,13.18
2022-12-29T15:00:57.264Z,13.16
2022-12-29T15:03:37.403Z,13.11
2022-12-29T15:06:09.145Z,13.16
2022-12-29T15:09:02.660Z,13.10
2022-12-29T15:11:39.270Z,13.16
2022-12-29T15:14:29.285Z,13.10
2022-12-29T15:16:56.853Z,13.03
2022-12-29T15:19:25.460Z,13.06
2022-12-29T15:21:56.815Z,12.99
2022-12-29T15:24:25.342Z,13.01
2022-12-29T15:26:55.805Z,12.97
2022-12-29T15:29:44.707Z,12.99
2022-12-29T15:32:30.783Z,12.90
2022-12-29T15:35:01.358Z,12.84
2022-12-29T15:37:34.776Z,12.80
2022-12-29T15:40:03.774Z,12.82
2022-12-29T15:42:59.490Z,12.83
2022-12-29T15:45:34.304Z,12.69
2022-12-29T15:48:02.985Z,12.78
2022-12-29T15:50:35.674Z,12.71
2022-12-29T15:53:03.524Z,12.74
2022-12-29T15:55:35.561Z,12.77
2022-12-29T15:58:08.634Z,12.60
2022-12-29T16:00:39.904Z,12.67
2022-12-29T16:03:15.188Z,12.57
2022-12-29T16:05:42.512Z,12.54
2022-12-29T16:08:30.218Z,12.40
2022-12-29T16:10:58.855Z,12.40
2022-12-29T16:13:39.899Z,12.38
2022-12-29T16:16:17.929Z,12.36
2022-12-29T16:18:46.957Z,12.45
2022-12-29T16:21:23.466Z,12.43
2022-12-29T16:23:54.186Z,12.38
2022-12-29T16:26:23.601Z,12.31
2022-12-29T16:29:05.653Z,12.17
2022-12-29T16:31:49.081Z,12.19
2022-12-29T16:34:30.913Z,12.26
2022-12-29T16:37:03.945Z,12.22
2022-12-29T16:39:40.633Z,12.26
2022-12-29T16:42:38.044Z,12.25
2022-12-29T16:45:58.183Z,12.23
2022-12-29T16:48:47.747Z,12.20
2022-12-29T16:51:24.466Z,12.18
2022-12-29T16:53:54.835Z,12.13
2022-12-29T16:56:28.596Z,12.19
2022-12-29T16:59:08.790Z,12.23
2022-12-29T17:01:40.752Z,12.24
2022-12-29T17:04:11.414Z,12.05
2022-12-29T17:06:39.130Z,12.08
2022-12-29T17:09:23.414Z,12.09
2022-12-29T17:12:01.509Z,11.98
2022-12-29T17:14:45.493Z,12.02
2022-12-29T17:17:34.652Z,11.98
2022-12-29T17:20:09.044Z,12.01
2022-12-29T17:22:37.030Z,11.69
2022-12-29T17:25:04.538Z,11.78
2022-12-29T17:27:41.741Z,11.70
2022-12-29T17:30:16.820Z,11.74
2022-12-29T17:32:56.644Z,11.74
2022-12-29T17:35:25.551Z,11.71
2022-12-29T17:37:53.297Z,11.71
2022-12-29T17:40:33.397Z,11.76
2022-12-29T17:43:01.155Z,11.69
2022-12-29T17:45:32.008Z,11.62
2022-12-29T17:48:02.975Z,11.54
2022-12-29T17:50:31.881Z,11.54
2022-12-29T17:53:04.254Z,11.52
2022-12-29T17:55:37.555Z,11.55
2022-12-29T17:58:15.724Z,11.53
2022-12-29T18:00:44.555Z,11.46
2022-12-29T18:03:31.432Z,11.41
2022-12-29T18:05:58.959Z,11.35
2022-12-29T18:08:28.677Z,11.39
2022-12-29T18:10:56.514Z,11.40
2022-12-29T18:13:40.452Z,11.42
2022-12-29T18:16:16.171Z,11.45
2022-12-29T18:18:47.124Z,11.41
2022-12-29T18:21:19.662Z,11.58
2022-12-29T18:23:52.042Z,11.50
2022-12-29T18:26:32.777Z,11.46
2022-12-29T18:29:00.799Z,11.52
2022-12-29T18:31:36.866Z,11.58
2022-12-29T18:34:15.679Z,11.53
2022-12-29T18:36:43.191Z,11.63
2022-12-29T18:39:11.921Z,11.79
2022-12-29T18:41:41.483Z,11.85
2022-12-29T18:44:13.105Z,11.93
2022-12-29T18:46:40.757Z,12.13
2022-12-29T18:49:07.902Z,12.23
2022-12-29T18:51:36.210Z,12.40
2022-12-29T18:54:04.633Z,12.42
2022-12-29T18:56:32.401Z,12.52
2022-12-29T18:59:00.636Z,12.67
2022-12-29T19:01:28.635Z,12.82
2022-12-29T19:03:58.979Z,12.77
2022-12-29T19:06:26.161Z,12.83
2022-12-29T19:08:55.017Z,12.98
2022-12-29T19:11:22.613Z,13.03
2022-12-29T19:13:50.611Z,13.02
2022-12-29T19:16:21.202Z,12.99
2022-12-29T19:19:04.059Z,13.05
2022-12-29T19:21:36.783Z,12.96
2022-12-29T19:24:04.975Z,13.01
2022-12-29T19:26:37.799Z,13.03
2022-12-29T19:29:08.741Z,13.03
2022-12-29T19:31:37.615Z,12.97
2022-12-29T19:34:05.332Z,12.91
2022-12-29T19:36:33.295Z,12.90
2022-12-29T19:39:00.835Z,12.91
2022-12-29T19:41:29.734Z,12.93
2022-12-29T19:44:01.439Z,12.82
2022-12-29T19:46:28.964Z,12.75
2022-12-29T19:48:59.006Z,12.79
2022-12-29T19:51:26.843Z,12.75
2022-12-29T19:53:55.240Z,12.83
2022-12-29T19:56:22.555Z,12.80
2022-12-29T19:58:51.165Z,12.71
2022-12-29T20:01:22.041Z,12.77
2022-12-29T20:03:50.455Z,12.75
2022-12-29T20:06:18.312Z,12.71
2022-12-29T20:08:46.200Z,12.73
2022-12-29T20:11:17.012Z,12.70
2022-12-29T20:13:49.561Z,12.69
2022-12-29T20:16:20.521Z,12.64
2022-12-29T20:18:56.255Z,12.65
2022-12-29T20:21:25.034Z,12.73
2022-12-29T20:23:56.432Z,12.70
2022-12-29T20:26:26.796Z,12.64
2022-12-29T20:28:55.190Z,12.63
2022-12-29T20:31:41.186Z,12.69
2022-12-29T20:34:17.367Z,12.53
2022-12-29T20:36:47.136Z,12.61
2022-12-29T20:39:18.837Z,12.50
2022-12-29T20:41:47.562Z,12.49
2022-12-29T20:44:15.356Z,12.47
2022-12-29T20:46:46.039Z,12.49
2022-12-29T20:49:13.545Z,12.42
2022-12-29T20:54:35.557Z,12.41
2022-12-29T20:57:07.931Z,12.40
2022-12-29T20:59:35.540Z,12.37
2022-12-29T21:02:03.124Z,12.36
2022-12-29T21:04:49.998Z,12.31
2022-12-29T21:07:20.382Z,12.30
2022-12-29T21:09:48.196Z,12.39
2022-12-29T21:12:15.403Z,12.37
2022-12-29T21:14:45.775Z,12.27
2022-12-29T21:17:13.392Z,12.25
2022-12-29T21:19:42.871Z,12.28
2022-12-29T21:22:11.574Z,12.34
2022-12-29T21:24:39.655Z,12.19
2022-12-29T21:27:06.802Z,12.18
2022-12-29T21:29:34.236Z,12.07
2022-12-29T21:32:06.236Z,12.18
2022-12-29T21:34:35.267Z,12.22
2022-12-29T21:37:03.396Z,12.10
2022-12-29T21:39:31.589Z,12.14
2022-12-29T21:42:00.632Z,12.16
2022-12-29T21:44:48.731Z,12.10
2022-12-29T21:47:15.919Z,12.03
2022-12-29T21:49:44.833Z,12.07
2022-12-29T21:52:13.014Z,12.07
2022-12-29T21:54:59.858Z,12.13
2022-12-29T21:57:49.136Z,12.15
2022-12-29T22:00:36.295Z,12.10
2022-12-29T22:03:25.881Z,12.07
2022-12-29T22:06:13.134Z,12.11
2022-12-29T22:08:59.295Z,12.02
2022-12-29T22:11:45.952Z,12.02
2022-12-29T22:14:13.258Z,11.98
2022-12-29T22:16:40.690Z,11.92
2022-12-29T22:19:09.185Z,11.77
2022-12-29T22:21:38.356Z,11.80
2022-12-29T22:24:09.022Z,11.83
2022-12-29T22:26:40.491Z,11.73
2022-12-29T22:29:09.463Z,11.81
2022-12-29T22:31:37.186Z,11.72
2022-12-29T22:34:06.556Z,11.71
2022-12-29T22:36:35.112Z,11.67
2022-12-29T22:39:02.894Z,11.59
2022-12-29T22:41:30.284Z,11.51
2022-12-29T22:43:58.160Z,11.40
2022-12-29T22:46:25.678Z,11.37
2022-12-29T22:48:54.451Z,11.34
2022-12-29T22:51:22.907Z,11.31
2022-12-29T22:53:50.995Z,11.37
2022-12-29T22:56:19.044Z,11.48
2022-12-29T22:58:47.778Z,11.43
2022-12-29T23:01:18.347Z,11.41
2022-12-29T23:03:45.823Z,11.37
2022-12-29T23:06:14.879Z,11.47
2022-12-29T23:08:42.970Z,11.39
2022-12-29T23:11:13.943Z,11.48
2022-12-29T23:13:42.338Z,11.49
2022-12-29T23:16:09.849Z,11.34
2022-12-29T23:18:37.336Z,11.54
2022-12-29T23:21:05.522Z,11.39
2022-12-29T23:23:54.326Z,11.38
2022-12-29T23:26:32.318Z,11.32
2022-12-29T23:29:01.163Z,11.31
2022-12-29T23:31:29.974Z,11.31
2022-12-29T23:33:58.307Z,11.32
2022-12-29T23:36:26.394Z,11.46
2022-12-29T23:38:53.628Z,11.44
2022-12-29T23:41:21.311Z,11.45
2022-12-29T23:43:48.691Z,11.50
2022-12-29T23:46:19.919Z,11.50
2022-12-29T23:48:47.281Z,11.55
2022-12-29T23:51:14.864Z,11.57
2022-12-29T23:53:45.940Z,11.73
2022-12-29T23:56:19.776Z,11.84
2022-12-29T23:58:47.427Z,11.66
